createdAt,value
2019-01-28T00:02:23.193Z,96119.09
2019-01-28T00:04:55.025Z,96128.37
2019-01-28T00:07:27.942Z,96130.48
2019-01-28T00:09:59.751Z,96135.17
2019-01-28T00:12:31.585Z,96128.37
2019-01-28T00:15:03.422Z,96136.59
2019-01-28T00:17:36.876Z,96142.00
2019-01-28T00:20:09.114Z,96135.77
2019-01-28T00:22:40.949Z,96137.07
2019-01-28T00:25:12.741Z,96138.00
2019-01-28T00:27:44.564Z,96135.19
2019-01-28T00:30:16.588Z,96137.88
2019-01-28T00:32:48.421Z,96148.20
2019-01-28T00:35:20.275Z,96154.19
2019-01-28T00:37:52.102Z,96158.08
2019-01-28T00:40:23.918Z,96159.83
2019-01-28T00:42:55.724Z,96166.62
2019-01-28T00:45:27.562Z,96167.66
2019-01-28T00:47:59.363Z,96170.69
2019-01-28T00:50:31.225Z,96172.91
2019-01-28T00:53:03.421Z,96160.59
2019-01-28T00:55:35.264Z,96174.19
2019-01-28T00:58:07.098Z,96175.00
2019-01-28T01:00:40.867Z,96182.62
2019-01-28T01:03:12.677Z,96181.95
2019-01-28T01:05:44.507Z,96176.79
2019-01-28T01:08:16.328Z,96184.52
2019-01-28T01:10:48.158Z,96185.09
2019-01-28T01:13:19.953Z,96185.42
2019-01-28T01:15:53.317Z,96184.13
2019-01-28T01:18:25.125Z,96180.86
2019-01-28T01:20:56.938Z,96174.87
2019-01-28T01:23:28.768Z,96176.53
2019-01-28T01:26:03.588Z,96173.25
2019-01-28T01:28:35.391Z,96176.77
2019-01-28T01:31:09.542Z,96177.71
2019-01-28T01:33:43.677Z,96184.64
2019-01-28T01:36:15.480Z,96182.17
2019-01-28T01:38:47.307Z,96179.20
2019-01-28T01:41:19.118Z,96171.78
2019-01-28T01:43:50.958Z,96177.52
2019-01-28T01:46:22.770Z,96171.38
2019-01-28T01:48:54.609Z,96175.95
2019-01-28T01:51:26.404Z,96170.65
2019-01-28T01:53:58.220Z,96167.19
2019-01-28T01:56:30.037Z,96170.09
2019-01-28T01:59:01.870Z,96170.08
2019-01-28T02:01:33.666Z,96166.44
2019-01-28T02:04:05.621Z,96167.80
2019-01-28T02:06:42.060Z,96164.84
2019-01-28T02:09:13.889Z,96168.59
2019-01-28T02:11:45.682Z,96163.45
2019-01-28T02:14:18.290Z,96162.53
2019-01-28T02:16:50.127Z,96162.21
2019-01-28T02:19:21.922Z,96159.93
2019-01-28T02:21:53.743Z,96160.56
2019-01-28T02:24:25.735Z,96149.33
2019-01-28T02:26:57.657Z,96149.14
2019-01-28T02:29:29.474Z,96151.97
2019-01-28T02:32:01.287Z,96151.73
2019-01-28T02:34:33.184Z,96150.25
2019-01-28T02:37:04.994Z,96149.32
2019-01-28T02:39:36.858Z,96149.70
2019-01-28T02:42:08.688Z,96147.12
2019-01-28T02:44:41.573Z,96145.59
2019-01-28T02:47:13.803Z,96146.30
2019-01-28T02:49:47.154Z,96144.89
2019-01-28T02:52:19.000Z,96135.41
2019-01-28T02:54:50.789Z,96128.13
2019-01-28T02:57:22.704Z,96129.53
2019-01-28T02:59:54.509Z,96137.53
2019-01-28T03:02:26.342Z,96141.95
2019-01-28T03:05:00.606Z,96139.97
2019-01-28T03:07:32.407Z,96149.70
2019-01-28T03:10:04.689Z,96152.75
2019-01-28T03:12:36.512Z,96153.91
2019-01-28T03:15:10.286Z,96150.52
2019-01-28T03:17:42.217Z,96150.06
2019-01-28T03:20:14.883Z,96152.64
2019-01-28T03:22:46.742Z,96152.98
2019-01-28T03:25:24.193Z,96149.82
2019-01-28T03:27:55.949Z,96150.38
2019-01-28T03:30:27.784Z,96140.55
2019-01-28T03:32:59.581Z,96143.23
2019-01-28T03:35:31.403Z,96146.40
2019-01-28T03:38:03.212Z,96140.56
2019-01-28T03:40:35.041Z,96143.27
2019-01-28T03:43:06.840Z,96144.77
2019-01-28T03:45:38.665Z,96137.88
2019-01-28T03:48:10.470Z,96131.29
2019-01-28T03:50:42.359Z,96131.77
2019-01-28T03:53:14.621Z,96126.11
2019-01-28T03:55:46.458Z,96127.05
2019-01-28T03:58:20.636Z,96124.78
2019-01-28T04:00:52.432Z,96124.67
2019-01-28T04:03:25.824Z,96131.70
2019-01-28T04:05:57.643Z,96134.31
2019-01-28T04:08:32.287Z,96130.10
2019-01-28T04:11:04.174Z,96133.02
2019-01-28T04:13:36.082Z,96134.33
2019-01-28T04:16:07.876Z,96128.02
2019-01-28T04:18:39.698Z,96131.88
2019-01-28T04:21:11.491Z,96133.66
2019-01-28T04:23:45.431Z,96134.13
2019-01-28T04:26:16.993Z,96132.13
2019-01-28T04:28:48.830Z,96137.53
2019-01-28T04:31:20.633Z,96132.84
2019-01-28T04:33:52.458Z,96131.06
2019-01-28T04:36:24.260Z,96136.72
2019-01-28T04:38:56.248Z,96132.36
2019-01-28T04:41:28.057Z,96127.67
2019-01-28T04:43:59.878Z,96127.91
2019-01-28T04:46:31.683Z,96128.73
2019-01-28T04:49:03.496Z,96128.04
2019-01-28T04:51:35.329Z,96132.95
2019-01-28T04:54:07.259Z,96133.30
2019-01-28T04:56:41.622Z,96128.84
2019-01-28T04:59:13.455Z,96128.12
2019-01-28T05:01:45.270Z,96125.07
2019-01-28T05:04:17.097Z,96122.25
2019-01-28T05:06:48.916Z,96121.50
2019-01-28T05:09:20.731Z,96123.72
2019-01-28T05:11:52.538Z,96117.03
2019-01-28T05:14:24.329Z,96126.05
2019-01-28T05:16:56.183Z,96122.61
2019-01-28T05:19:27.982Z,96122.09
2019-01-28T05:21:59.810Z,96127.28
2019-01-28T05:24:31.633Z,96127.39
2019-01-28T05:27:03.449Z,96129.27
2019-01-28T05:29:35.267Z,96126.66
2019-01-28T05:32:07.356Z,96123.01
2019-01-28T05:34:39.181Z,96122.16
2019-01-28T05:37:11.786Z,96122.52
2019-01-28T05:39:43.601Z,96126.34
2019-01-28T05:42:18.408Z,96128.27
2019-01-28T05:44:52.956Z,96129.33
2019-01-28T05:47:24.784Z,96129.00
2019-01-28T05:49:56.604Z,96129.81
2019-01-28T05:52:28.414Z,96129.45
2019-01-28T05:55:00.260Z,96136.41
2019-01-28T05:57:32.044Z,96130.88
2019-01-28T06:00:04.166Z,96130.07
2019-01-28T06:02:38.791Z,96129.97
2019-01-28T06:05:10.875Z,96127.83
2019-01-28T06:07:42.677Z,96128.64
2019-01-28T06:10:15.083Z,96130.10
2019-01-28T06:12:48.412Z,96131.32
2019-01-28T06:15:20.483Z,96134.81
2019-01-28T06:17:52.278Z,96137.94
2019-01-28T06:20:24.652Z,96131.54
2019-01-28T06:22:58.093Z,96131.91
2019-01-28T06:25:29.956Z,96137.98
2019-01-28T06:28:01.781Z,96132.66
2019-01-28T06:30:33.921Z,96129.81
2019-01-28T06:33:05.791Z,96129.08
2019-01-28T06:35:37.594Z,96132.67
2019-01-28T06:38:09.406Z,96135.66
2019-01-28T06:40:41.211Z,96136.21
2019-01-28T06:43:13.050Z,96131.91
2019-01-28T06:45:44.847Z,96136.32
2019-01-28T06:48:16.681Z,96132.67
2019-01-28T06:50:48.494Z,96132.56
2019-01-28T06:53:20.490Z,96148.50
2019-01-28T06:55:52.309Z,96146.66
2019-01-28T06:58:24.141Z,96147.95
2019-01-28T07:00:55.939Z,96145.48
2019-01-28T07:03:27.763Z,96149.77
2019-01-28T07:05:59.592Z,96147.30
2019-01-28T07:08:31.418Z,96148.39
2019-01-28T07:11:03.239Z,96141.19
2019-01-28T07:13:35.063Z,96147.85
2019-01-28T07:16:06.964Z,96144.47
2019-01-28T07:18:38.792Z,96146.98
2019-01-28T07:21:10.625Z,96154.65
2019-01-28T07:23:42.442Z,96149.61
2019-01-28T07:26:14.274Z,96147.14
2019-01-28T07:28:47.161Z,96154.87
2019-01-28T07:31:18.997Z,96157.56
2019-01-28T07:33:50.821Z,96154.54
2019-01-28T07:36:22.806Z,96147.99
2019-01-28T07:38:54.639Z,96152.34
2019-01-28T07:41:29.430Z,96156.59
2019-01-28T07:44:02.302Z,96154.83
2019-01-28T07:46:34.111Z,96161.16
2019-01-28T07:49:05.951Z,96155.63
2019-01-28T07:51:41.050Z,96158.10
2019-01-28T07:54:12.885Z,96155.67
2019-01-28T07:56:44.758Z,96168.08
2019-01-28T07:59:16.671Z,96162.01
2019-01-28T08:01:48.429Z,96156.75
2019-01-28T08:04:20.237Z,96159.00
2019-01-28T08:06:59.369Z,96158.30
2019-01-28T08:09:25.623Z,96150.52
2019-01-28T08:11:57.421Z,96154.80
2019-01-28T08:14:31.082Z,96154.95
2019-01-28T08:17:05.010Z,96159.36
2019-01-28T08:19:36.910Z,96149.70
2019-01-28T08:22:12.497Z,96146.66
2019-01-28T08:24:47.536Z,96147.48
2019-01-28T08:27:24.880Z,96152.08
2019-01-28T08:30:04.123Z,96156.16
2019-01-28T08:32:37.126Z,96150.05
2019-01-28T08:35:09.570Z,96154.43
2019-01-28T08:37:43.052Z,96152.19
2019-01-28T08:40:15.348Z,96153.91
2019-01-28T08:42:50.260Z,96151.97
2019-01-28T08:45:20.729Z,96149.61
2019-01-28T08:47:55.058Z,96142.63
2019-01-28T08:50:30.007Z,96150.02
2019-01-28T08:53:04.966Z,96150.95
2019-01-28T08:55:39.847Z,96146.05
2019-01-28T08:58:15.055Z,96146.09
2019-01-28T09:00:46.881Z,96146.31
2019-01-28T09:03:18.781Z,96147.34
2019-01-28T09:05:50.668Z,96148.84
2019-01-28T09:08:24.081Z,96154.59
2019-01-28T09:11:00.609Z,96163.64
2019-01-28T09:13:32.475Z,96157.09
2019-01-28T09:16:08.285Z,96162.84
2019-01-28T09:18:40.200Z,96164.46
2019-01-28T09:21:12.018Z,96164.79
2019-01-28T09:23:43.854Z,96171.59
2019-01-28T09:26:17.163Z,96162.64
2019-01-28T09:28:50.266Z,96165.70
2019-01-28T09:31:22.214Z,96169.91
2019-01-28T09:33:56.406Z,96168.95
2019-01-28T09:36:30.577Z,96168.25
2019-01-28T09:39:04.057Z,96170.91
2019-01-28T09:41:36.941Z,96176.64
2019-01-28T09:44:08.962Z,96174.44
2019-01-28T09:46:42.445Z,96172.45
2019-01-28T09:49:16.092Z,96174.11
2019-01-28T09:51:49.423Z,96182.20
2019-01-28T09:54:21.277Z,96192.84
2019-01-28T09:56:55.843Z,96182.39
2019-01-28T09:59:35.226Z,96186.88
2019-01-28T10:02:09.053Z,96186.73
2019-01-28T10:04:42.198Z,96188.79
2019-01-28T10:07:14.046Z,96187.72
2019-01-28T10:09:45.854Z,96180.49
2019-01-28T10:12:17.897Z,96183.41
2019-01-28T10:14:53.474Z,96185.98
2019-01-28T10:17:25.269Z,96186.35
2019-01-28T10:19:57.083Z,96183.05
2019-01-28T10:22:28.996Z,96187.84
2019-01-28T10:25:02.791Z,96189.63
2019-01-28T10:27:41.672Z,96186.10
2019-01-28T10:30:17.654Z,96184.67
2019-01-28T10:32:49.497Z,96180.83
2019-01-28T10:35:23.872Z,96181.34
2019-01-28T10:38:01.978Z,96185.09
2019-01-28T10:40:38.436Z,96183.33
2019-01-28T10:43:11.123Z,96191.88
2019-01-28T10:45:43.929Z,96184.84
2019-01-28T10:48:15.748Z,96184.64
2019-01-28T10:50:47.743Z,96177.58
2019-01-28T10:53:19.639Z,96184.80
2019-01-28T10:55:52.606Z,96180.10
2019-01-28T10:58:24.416Z,96183.20
2019-01-28T11:00:56.346Z,96190.08
2019-01-28T11:03:29.821Z,96182.06
2019-01-28T11:06:03.767Z,96183.72
2019-01-28T11:08:35.605Z,96184.41
2019-01-28T11:11:42.468Z,96174.95
2019-01-28T11:14:14.461Z,96186.22
2019-01-28T11:16:49.382Z,96174.63
2019-01-28T11:19:21.399Z,96177.75
2019-01-28T11:21:53.243Z,96171.27
2019-01-28T11:24:30.079Z,96169.17
2019-01-28T11:27:03.038Z,96170.60
2019-01-28T11:29:39.274Z,96174.22
2019-01-28T11:32:11.079Z,96169.65
2019-01-28T11:34:50.763Z,96164.97
2019-01-28T11:37:22.672Z,96168.25
2019-01-28T11:39:57.635Z,96169.06
2019-01-28T11:42:31.409Z,96160.03
2019-01-28T11:45:24.867Z,96162.69
2019-01-28T11:47:59.133Z,96166.30
2019-01-28T11:50:31.013Z,96163.73
2019-01-28T11:53:02.877Z,96169.65
2019-01-28T11:55:34.682Z,96173.30
2019-01-28T11:58:06.958Z,96167.18
2019-01-28T12:01:01.084Z,96167.95
2019-01-28T12:03:33.025Z,96168.07
2019-01-28T12:06:06.419Z,96170.61
2019-01-28T12:24:28.077Z,96189.16
2019-01-28T12:27:04.404Z,96184.48
2019-01-28T12:29:38.648Z,96188.87
2019-01-28T12:32:12.557Z,96185.80
2019-01-28T12:34:44.424Z,96189.08
2019-01-28T12:37:17.830Z,96194.72
2019-01-28T12:43:48.172Z,96191.44
2019-01-28T12:46:30.974Z,96199.77
2019-01-28T12:51:58.802Z,96195.75
2019-01-28T12:55:03.366Z,96197.47
2019-01-28T12:57:41.135Z,96204.00
2019-01-28T13:00:30.015Z,96203.58
2019-01-28T13:04:05.879Z,96210.02
2019-01-28T13:06:40.579Z,96209.11
2019-01-28T13:09:33.593Z,96211.26
2019-01-28T13:14:57.785Z,96224.72
2019-01-28T13:17:41.222Z,96231.28
2019-01-28T13:20:21.452Z,96222.53
2019-01-28T13:23:04.918Z,96229.89
2019-01-28T13:25:39.882Z,96231.23
2019-01-28T13:28:19.772Z,96227.89
2019-01-28T13:30:57.151Z,96235.63
2019-01-28T13:33:31.318Z,96240.40
2019-01-28T13:39:05.015Z,96236.38
2019-01-28T13:41:52.892Z,96241.53
2019-01-28T13:44:46.793Z,96247.22
2019-01-28T13:48:12.825Z,96241.42
2019-01-28T13:50:25.041Z,96247.38
2019-01-28T14:00:27.445Z,96255.38
2019-01-28T14:03:03.846Z,96258.66
2019-01-28T14:05:38.799Z,96264.41
2019-01-28T14:08:13.590Z,96265.09
2019-01-28T14:10:53.989Z,96273.30
2019-01-28T14:13:25.816Z,96279.73
2019-01-28T14:15:57.739Z,96281.63
2019-01-28T14:18:29.567Z,96281.91
2019-01-28T14:21:05.576Z,96293.55
2019-01-28T14:23:37.396Z,96290.70
2019-01-28T14:26:09.237Z,96286.19
2019-01-28T14:28:41.130Z,96291.23
2019-01-28T14:31:14.137Z,96289.31
2019-01-28T14:33:45.994Z,96292.30
2019-01-28T14:36:17.850Z,96295.73
2019-01-28T14:38:49.672Z,96299.60
2019-01-28T14:41:21.553Z,96299.49
2019-01-28T14:43:54.359Z,96305.42
2019-01-28T14:46:26.240Z,96314.70
2019-01-28T14:48:58.286Z,96312.81
2019-01-28T14:51:30.815Z,96318.94
2019-01-28T14:54:02.670Z,96319.53
2019-01-28T14:56:34.705Z,96322.92
2019-01-28T14:59:07.095Z,96326.36
2019-01-28T15:01:38.925Z,96325.88
2019-01-28T15:04:12.850Z,96322.23
2019-01-28T15:06:44.714Z,96332.59
2019-01-28T15:09:16.660Z,96334.14
2019-01-28T15:11:48.596Z,96336.67
2019-01-28T15:14:21.485Z,96337.41
2019-01-28T15:16:53.324Z,96338.11
2019-01-28T15:19:25.238Z,96335.48
2019-01-28T15:21:57.097Z,96342.78
2019-01-28T15:24:28.945Z,96351.43
2019-01-28T15:27:00.792Z,96350.20
2019-01-28T15:29:32.715Z,96352.17
2019-01-28T15:32:04.605Z,96359.16
2019-01-28T15:34:36.491Z,96363.66
2019-01-28T15:37:08.404Z,96365.64
2019-01-28T15:39:40.255Z,96362.98
2019-01-28T15:42:14.600Z,96365.77
2019-01-28T15:44:46.438Z,96365.37
2019-01-28T15:47:18.328Z,96373.00
2019-01-28T15:49:50.284Z,96380.20
2019-01-28T15:52:22.145Z,96381.70
2019-01-28T15:54:53.994Z,96386.17
2019-01-28T15:57:25.888Z,96391.43
2019-01-28T15:59:57.809Z,96392.98
2019-01-28T16:02:29.698Z,96399.00
2019-01-28T16:05:03.387Z,96400.23
2019-01-28T16:07:38.191Z,96405.34
2019-01-28T16:10:18.390Z,96405.19
2019-01-28T16:12:52.797Z,96412.69
2019-01-28T16:15:29.078Z,96418.60
2019-01-28T16:18:00.976Z,96416.45
2019-01-28T16:20:35.434Z,96421.13
2019-01-28T16:23:10.874Z,96417.27
2019-01-28T16:25:42.738Z,96422.83
2019-01-28T16:28:14.630Z,96431.08
2019-01-28T16:30:46.536Z,96440.97
2019-01-28T16:33:20.010Z,96435.34
2019-01-28T16:35:51.953Z,96442.67
2019-01-28T16:38:23.860Z,96448.64
2019-01-28T16:40:55.724Z,96454.64
2019-01-28T16:43:28.809Z,96464.95
2019-01-28T16:47:13.375Z,96456.24
2019-01-28T16:49:48.631Z,96470.45
2019-01-28T16:52:20.630Z,96471.06
2019-01-28T16:54:53.566Z,96474.38
2019-01-28T16:57:26.996Z,96486.02
2019-01-28T16:59:58.879Z,96486.18
2019-01-28T17:02:30.695Z,96497.30
2019-01-28T17:05:03.660Z,96485.91
2019-01-28T17:07:38.566Z,96502.25
2019-01-28T17:10:11.346Z,96504.25
2019-01-28T17:12:43.175Z,96505.61
2019-01-28T17:15:16.458Z,96507.57
2019-01-28T17:17:48.334Z,96514.83
2019-01-28T17:20:25.837Z,96519.30
2019-01-28T17:22:57.993Z,96516.63
2019-01-28T17:25:36.706Z,96520.77
2019-01-28T17:28:10.837Z,96525.80
2019-01-28T17:30:45.760Z,96528.20
2019-01-28T17:33:18.540Z,96540.52
2019-01-28T17:35:50.272Z,96549.80
2019-01-28T17:38:22.093Z,96543.88
2019-01-28T17:40:53.942Z,96560.92
2019-01-28T17:43:25.906Z,96553.30
2019-01-28T17:45:59.816Z,96556.45
2019-01-28T17:48:33.188Z,96567.05
2019-01-28T17:51:08.083Z,96572.39
2019-01-28T17:53:40.925Z,96573.80
2019-01-28T17:56:12.768Z,96581.93
2019-01-28T17:58:44.666Z,96575.87
2019-01-28T18:01:16.686Z,96588.03
2019-01-28T18:03:48.553Z,96595.95
2019-01-28T18:06:20.404Z,96598.23
2019-01-28T18:08:54.754Z,96599.05
2019-01-28T18:11:26.709Z,96607.50
2019-01-28T18:14:01.609Z,96609.34
2019-01-28T18:16:37.649Z,96616.61
2019-01-28T18:19:09.565Z,96622.05
2019-01-28T18:21:41.440Z,96626.48
2019-01-28T18:24:13.339Z,96634.50
2019-01-28T18:26:51.347Z,96635.59
2019-01-28T18:29:26.293Z,96641.38
2019-01-28T18:32:02.280Z,96641.23
2019-01-28T18:34:35.458Z,96647.77
2019-01-28T18:37:10.369Z,96650.86
2019-01-28T18:39:44.689Z,96657.92
2019-01-28T18:42:27.116Z,96661.97
2019-01-28T18:45:03.301Z,96668.42
2019-01-28T18:47:35.204Z,96670.56
2019-01-28T18:50:17.083Z,96675.91
2019-01-28T18:52:51.870Z,96681.40
2019-01-28T18:55:25.656Z,96684.53
2019-01-28T18:57:58.236Z,96688.84
2019-01-28T19:00:33.286Z,96691.27
2019-01-28T19:03:13.232Z,96693.80
2019-01-28T19:06:17.921Z,96695.56
2019-01-28T19:09:18.880Z,96698.61
2019-01-28T19:12:05.077Z,96697.76
2019-01-28T19:14:57.926Z,96704.86
2019-01-28T19:17:58.331Z,96706.97
2019-01-28T19:20:53.953Z,96710.39
2019-01-28T19:23:26.219Z,96718.22
2019-01-28T19:25:58.101Z,96718.84
2019-01-28T19:28:35.420Z,96722.70
2019-01-28T19:31:16.409Z,96726.09
2019-01-28T19:33:58.373Z,96737.41
2019-01-28T19:36:24.129Z,96743.31
2019-01-28T19:38:56.014Z,96740.08
2019-01-28T19:41:31.046Z,96747.46
2019-01-28T19:44:08.311Z,96758.39
2019-01-28T19:46:41.828Z,96759.59
2019-01-28T19:49:13.753Z,96764.08
2019-01-28T19:51:45.791Z,96770.80
2019-01-28T19:54:23.901Z,96769.95
2019-01-28T19:56:55.926Z,96777.05
2019-01-28T19:59:29.017Z,96780.55
2019-01-28T20:02:07.697Z,96789.47
2019-01-28T20:04:50.178Z,96799.68
2019-01-28T20:07:37.207Z,96798.67
2019-01-28T20:10:09.646Z,96812.75
2019-01-28T20:12:43.218Z,96820.73
2019-01-28T20:15:20.484Z,96819.02
2019-01-28T20:17:52.474Z,96826.70
2019-01-28T20:20:24.339Z,96827.91
2019-01-28T20:22:59.142Z,96826.99
2019-01-28T20:25:35.625Z,96837.11
2019-01-28T20:28:07.704Z,96841.52
2019-01-28T20:30:41.907Z,96839.59
2019-01-28T20:33:13.823Z,96844.84
2019-01-28T20:35:48.748Z,96847.80
2019-01-28T20:38:24.246Z,96849.44
2019-01-28T20:40:56.131Z,96855.34
2019-01-28T20:43:29.594Z,96857.73
2019-01-28T20:46:04.771Z,96855.72
2019-01-28T20:48:36.807Z,96860.87
2019-01-28T20:51:13.864Z,96861.41
2019-01-28T20:53:45.767Z,96868.61
2019-01-28T20:56:19.729Z,96876.34
2019-01-28T20:58:51.567Z,96871.11
2019-01-28T21:01:26.036Z,96877.28
2019-01-28T21:03:57.895Z,96884.09
2019-01-28T21:06:31.415Z,96890.08
2019-01-28T21:09:04.842Z,96892.91
2019-01-28T21:11:37.358Z,96903.05
2019-01-28T21:14:09.219Z,96906.35
2019-01-28T21:16:45.841Z,96915.48
2019-01-28T21:19:17.733Z,96918.95
2019-01-28T21:21:49.623Z,96923.76
2019-01-28T21:24:21.900Z,96927.16
2019-01-28T21:26:53.785Z,96939.58
2019-01-28T21:29:28.944Z,96942.44
2019-01-28T21:32:04.947Z,96952.00
2019-01-28T21:34:41.782Z,96956.62
2019-01-28T21:37:29.927Z,96952.37
2019-01-28T21:40:04.559Z,96957.17
2019-01-28T21:42:39.472Z,96959.94
2019-01-28T21:45:15.893Z,96962.79
2019-01-28T21:47:56.820Z,96965.55
2019-01-28T21:50:31.202Z,96969.13
2019-01-28T21:53:07.211Z,96975.14
2019-01-28T21:55:41.814Z,96976.24
2019-01-28T21:58:13.659Z,96983.69
2019-01-28T22:00:45.604Z,96982.30
2019-01-28T22:03:21.298Z,96989.30
2019-01-28T22:05:52.243Z,96994.34
2019-01-28T22:08:26.004Z,96998.69
2019-01-28T22:11:00.775Z,97003.02
2019-01-28T22:13:32.609Z,97009.64
2019-01-28T22:16:04.543Z,97011.75
2019-01-28T22:18:36.379Z,97002.64
2019-01-28T22:21:15.066Z,97008.70
2019-01-28T22:23:46.645Z,97013.68
2019-01-28T22:26:21.411Z,97011.48
2019-01-28T22:28:55.730Z,97022.00
2019-01-28T22:31:30.513Z,97017.11
2019-01-28T22:34:02.558Z,97020.03
2019-01-28T22:36:40.828Z,97010.47
2019-01-28T22:39:15.613Z,97021.41
2019-01-28T22:41:47.576Z,97024.94
2019-01-28T22:44:20.717Z,97028.06
2019-01-28T22:46:55.019Z,97032.30
2019-01-28T22:49:28.938Z,97036.27
2019-01-28T22:52:07.776Z,97037.34
2019-01-28T22:54:38.040Z,97042.69
2019-01-28T22:57:11.252Z,97047.93
2019-01-28T22:59:45.146Z,97039.34
2019-01-28T23:02:18.211Z,97040.91
2019-01-28T23:04:50.052Z,97044.86
2019-01-28T23:07:21.912Z,97048.43
2019-01-28T23:09:56.817Z,97052.67
2019-01-28T23:12:29.985Z,97056.25
2019-01-28T23:15:16.677Z,97059.30
2019-01-28T23:17:50.578Z,97065.17
2019-01-28T23:20:22.402Z,97063.89
2019-01-28T23:22:54.278Z,97068.31
2019-01-28T23:25:30.316Z,97070.98
2019-01-28T23:28:03.456Z,97074.20
2019-01-28T23:30:38.209Z,97070.72
2019-01-28T23:33:10.508Z,97075.70
2019-01-28T23:35:45.366Z,97084.45
2019-01-28T23:38:17.204Z,97091.45
2019-01-28T23:40:52.095Z,97086.12
2019-01-28T23:43:23.941Z,97091.09
2019-01-28T23:45:55.802Z,97093.50
2019-01-28T23:48:32.137Z,97097.19
2019-01-28T23:51:06.988Z,97099.24
2019-01-28T23:53:41.777Z,97103.02
2019-01-28T23:56:13.663Z,97094.53
2019-01-28T23:58:49.876Z,97098.22
